createdAt,value
2018-07-23T00:00:26.844Z,98.40
2018-07-23T00:02:55.579Z,98.50
2018-07-23T00:05:24.111Z,98.50
2018-07-23T00:07:57.937Z,98.40
2018-07-23T00:10:28.845Z,98.20
2018-07-23T00:12:59.327Z,98.60
2018-07-23T00:15:27.817Z,99.00
2018-07-23T00:17:56.393Z,99.10
2018-07-23T00:20:24.994Z,99.40
2018-07-23T00:22:53.561Z,99.80
2018-07-23T00:25:23.107Z,99.80
2018-07-23T00:27:58.243Z,99.80
2018-07-23T00:30:26.907Z,99.80
2018-07-23T00:33:01.815Z,99.80
2018-07-23T00:35:30.354Z,99.80
2018-07-23T00:37:58.867Z,99.80
2018-07-23T00:40:28.308Z,99.80
2018-07-23T00:43:04.319Z,99.80
2018-07-23T00:45:32.803Z,99.80
2018-07-23T00:48:01.292Z,99.80
2018-07-23T00:50:29.786Z,99.80
2018-07-23T00:52:58.287Z,99.80
2018-07-23T00:55:26.805Z,99.80
2018-07-23T00:57:55.401Z,99.80
2018-07-23T01:00:23.917Z,99.80
2018-07-23T01:02:52.399Z,99.80
2018-07-23T01:05:20.946Z,99.80
2018-07-23T01:07:49.499Z,99.80
2018-07-23T01:10:18.057Z,99.80
2018-07-23T01:12:46.575Z,99.80
2018-07-23T01:15:15.138Z,99.80
2018-07-23T01:17:43.619Z,99.80
2018-07-23T01:20:12.414Z,99.80
2018-07-23T01:22:41.045Z,99.80
2018-07-23T01:25:09.556Z,99.80
2018-07-23T01:27:38.106Z,99.80
2018-07-23T01:30:09.948Z,99.80
2018-07-23T01:32:38.476Z,99.80
2018-07-23T01:35:12.487Z,99.80
2018-07-23T01:37:41.107Z,99.80
2018-07-23T01:40:09.646Z,99.80
2018-07-23T01:42:38.132Z,99.80
2018-07-23T01:45:06.822Z,99.80
2018-07-23T01:47:37.934Z,99.80
2018-07-23T01:50:06.815Z,99.80
2018-07-23T01:52:35.321Z,99.80
2018-07-23T01:55:03.949Z,99.80
2018-07-23T01:57:32.495Z,99.80
2018-07-23T02:00:01.135Z,99.80
2018-07-23T02:02:29.630Z,99.80
2018-07-23T02:04:58.171Z,99.80
2018-07-23T02:07:29.240Z,99.80
2018-07-23T02:09:57.718Z,99.80
2018-07-23T02:12:26.239Z,99.80
2018-07-23T02:14:54.928Z,99.80
2018-07-23T02:17:23.531Z,99.80
2018-07-23T02:19:52.068Z,99.80
2018-07-23T02:22:22.651Z,99.80
2018-07-23T02:24:51.294Z,99.80
2018-07-23T02:27:19.826Z,99.80
2018-07-23T02:29:48.328Z,99.80
2018-07-23T02:32:17.667Z,99.80
2018-07-23T02:34:46.175Z,99.80
2018-07-23T02:37:14.692Z,99.80
2018-07-23T02:39:43.366Z,99.80
2018-07-23T02:42:11.832Z,99.80
2018-07-23T02:44:40.332Z,99.80
2018-07-23T02:47:09.460Z,99.80
2018-07-23T02:49:38.170Z,99.80
2018-07-23T02:52:06.804Z,99.80
2018-07-23T02:54:35.779Z,99.80
2018-07-23T02:57:04.357Z,99.80
2018-07-23T02:59:32.899Z,99.80
2018-07-23T03:02:01.343Z,99.80
2018-07-23T03:04:29.871Z,99.80
2018-07-23T03:06:58.396Z,99.80
2018-07-23T03:09:26.981Z,99.80
2018-07-23T03:11:55.571Z,99.80
2018-07-23T03:14:24.126Z,99.80
2018-07-23T03:16:52.615Z,99.80
2018-07-23T03:19:21.150Z,99.80
2018-07-23T03:21:49.867Z,99.80
2018-07-23T03:24:18.369Z,99.80
2018-07-23T03:26:46.956Z,99.80
2018-07-23T03:29:15.422Z,99.80
2018-07-23T03:31:43.967Z,99.80
2018-07-23T03:34:12.470Z,99.80
2018-07-23T03:36:41.106Z,99.80
2018-07-23T03:39:10.656Z,99.80
2018-07-23T03:41:39.324Z,99.80
2018-07-23T03:46:38.143Z,99.80
2018-07-23T03:49:06.964Z,99.80
2018-07-23T03:51:35.556Z,99.80
2018-07-23T03:54:04.128Z,99.80
2018-07-23T03:56:32.696Z,99.80
2018-07-23T03:59:01.308Z,99.80
2018-07-23T04:01:29.800Z,99.80
2018-07-23T04:03:58.378Z,99.80
2018-07-23T04:06:26.880Z,99.80
2018-07-23T04:08:55.425Z,99.80
2018-07-23T04:11:23.977Z,99.80
2018-07-23T04:13:52.565Z,99.80
2018-07-23T04:16:21.127Z,99.80
2018-07-23T04:18:49.619Z,99.80
2018-07-23T04:21:18.188Z,99.80
2018-07-23T04:23:46.733Z,99.80
2018-07-23T04:26:15.211Z,99.80
2018-07-23T04:28:43.730Z,99.80
2018-07-23T04:31:12.239Z,99.80
2018-07-23T04:33:40.812Z,99.80
2018-07-23T04:36:09.264Z,99.80
2018-07-23T04:38:39.050Z,99.80
2018-07-23T04:41:07.563Z,99.80
2018-07-23T04:43:36.082Z,99.80
2018-07-23T04:46:04.846Z,99.80
2018-07-23T04:48:33.482Z,99.80
2018-07-23T04:51:01.964Z,99.80
2018-07-23T04:53:30.559Z,99.80
2018-07-23T04:55:59.425Z,99.80
2018-07-23T04:58:28.004Z,99.80
2018-07-23T05:00:56.657Z,99.80
2018-07-23T05:03:25.775Z,99.80
2018-07-23T05:05:54.210Z,99.80
2018-07-23T05:08:23.441Z,99.80
2018-07-23T05:10:51.943Z,99.80
2018-07-23T05:13:20.423Z,99.80
2018-07-23T05:15:48.918Z,99.80
2018-07-23T05:18:17.455Z,99.80
2018-07-23T05:20:46.851Z,99.80
2018-07-23T05:23:15.400Z,99.80
2018-07-23T05:25:43.988Z,99.80
2018-07-23T05:28:12.518Z,99.80
2018-07-23T05:30:41.047Z,99.80
2018-07-23T05:33:15.985Z,99.80
2018-07-23T05:35:44.490Z,99.80
2018-07-23T05:38:13.057Z,99.80
2018-07-23T05:40:41.515Z,99.80
2018-07-23T05:43:10.056Z,99.80
2018-07-23T05:45:38.593Z,99.80
2018-07-23T05:48:07.116Z,99.80
2018-07-23T05:50:35.610Z,99.80
2018-07-23T05:53:04.123Z,99.80
2018-07-23T05:55:32.691Z,99.80
2018-07-23T05:58:01.707Z,99.80
2018-07-23T06:00:30.219Z,99.80
2018-07-23T06:02:58.888Z,99.80
2018-07-23T06:05:27.480Z,99.80
2018-07-23T06:07:55.922Z,99.80
2018-07-23T06:10:24.800Z,99.80
2018-07-23T06:12:53.470Z,99.80
2018-07-23T06:15:22.749Z,99.80
2018-07-23T06:17:51.447Z,99.80
2018-07-23T06:20:20.064Z,99.80
2018-07-23T06:22:48.561Z,99.80
2018-07-23T06:25:17.076Z,99.80
2018-07-23T06:27:45.579Z,99.80
2018-07-23T06:30:14.133Z,99.80
2018-07-23T06:32:42.602Z,99.80
2018-07-23T06:35:11.119Z,99.80
2018-07-23T06:37:39.679Z,99.80
2018-07-23T06:40:08.657Z,99.80
2018-07-23T06:42:37.290Z,98.90
2018-07-23T06:45:05.932Z,98.10
2018-07-23T06:47:34.411Z,98.20
2018-07-23T06:50:02.939Z,98.00
2018-07-23T06:52:31.531Z,97.20
2018-07-23T06:55:00.016Z,96.60
2018-07-23T06:57:28.806Z,96.60
2018-07-23T06:59:57.283Z,95.80
2018-07-23T07:02:25.931Z,95.80
2018-07-23T07:04:54.511Z,96.20
2018-07-23T07:07:22.991Z,96.10
2018-07-23T07:09:51.476Z,95.90
2018-07-23T07:12:20.042Z,95.70
2018-07-23T07:14:48.513Z,94.50
2018-07-23T07:17:17.019Z,94.00
2018-07-23T07:19:45.518Z,93.90
2018-07-23T07:22:14.031Z,94.10
2018-07-23T07:24:42.719Z,93.00
2018-07-23T07:27:11.226Z,92.90
2018-07-23T07:29:39.825Z,92.60
2018-07-23T07:32:08.318Z,91.60
2018-07-23T07:34:37.763Z,91.80
2018-07-23T07:37:06.411Z,91.50
2018-07-23T07:39:34.923Z,91.00
2018-07-23T07:42:03.553Z,88.40
2018-07-23T07:44:32.131Z,88.90
2018-07-23T07:47:00.660Z,88.40
2018-07-23T07:49:29.190Z,88.60
2018-07-23T07:53:36.819Z,86.40
2018-07-23T07:56:05.317Z,86.20
2018-07-23T07:58:33.895Z,84.90
2018-07-23T08:01:02.374Z,83.10
2018-07-23T08:03:31.705Z,83.70
2018-07-23T08:06:00.194Z,83.40
2018-07-23T08:10:56.891Z,75.00
2018-07-23T08:13:25.588Z,73.90
2018-07-23T08:15:54.154Z,73.70
2018-07-23T08:18:22.699Z,70.70
2018-07-23T08:20:51.284Z,70.80
2018-07-23T08:23:19.769Z,70.70
2018-07-23T08:25:48.291Z,69.20
2018-07-23T08:28:16.765Z,68.90
2018-07-23T08:30:45.312Z,68.90
2018-07-23T08:33:13.780Z,67.30
2018-07-23T08:35:42.324Z,66.60
2018-07-23T08:38:10.830Z,65.30
2018-07-23T08:40:39.372Z,66.40
2018-07-23T08:43:07.969Z,64.40
2018-07-23T08:45:36.527Z,63.80
2018-07-23T08:48:05.051Z,64.00
2018-07-23T08:50:33.611Z,64.20
2018-07-23T08:53:02.118Z,63.30
2018-07-23T08:55:31.172Z,62.40
2018-07-23T08:57:59.680Z,62.80
2018-07-23T09:00:28.204Z,62.20
2018-07-23T09:02:56.697Z,62.80
2018-07-23T09:05:25.251Z,62.30
2018-07-23T09:07:53.783Z,61.20
2018-07-23T09:10:22.259Z,61.00
2018-07-23T09:12:51.002Z,61.00
2018-07-23T09:15:19.482Z,60.40
2018-07-23T09:17:49.711Z,60.70
2018-07-23T09:20:18.310Z,60.00
2018-07-23T09:22:46.855Z,60.50
2018-07-23T09:25:15.405Z,59.40
2018-07-23T09:27:43.868Z,59.40
2018-07-23T09:30:17.789Z,58.60
2018-07-23T09:32:47.395Z,57.80
2018-07-23T09:35:15.935Z,57.40
2018-07-23T09:37:44.494Z,58.20
2018-07-23T09:40:13.369Z,58.50
2018-07-23T09:42:41.968Z,56.50
2018-07-23T09:45:10.624Z,56.50
2018-07-23T09:47:39.263Z,55.80
2018-07-23T09:50:07.755Z,55.60
2018-07-23T09:52:36.297Z,55.10
2018-07-23T09:55:04.852Z,55.80
2018-07-23T09:57:33.405Z,54.50
2018-07-23T10:00:01.903Z,54.40
2018-07-23T10:02:30.394Z,55.20
2018-07-23T10:04:58.939Z,54.30
2018-07-23T10:07:27.431Z,52.70
2018-07-23T10:09:55.962Z,52.20
2018-07-23T10:12:24.484Z,52.00
2018-07-23T10:14:53.004Z,51.80
2018-07-23T10:17:21.546Z,52.30
2018-07-23T10:19:50.103Z,52.20
2018-07-23T10:22:18.731Z,52.90
2018-07-23T10:24:47.188Z,51.40
2018-07-23T10:27:15.648Z,51.80
2018-07-23T10:29:44.184Z,52.20
2018-07-23T10:32:12.724Z,52.50
2018-07-23T10:34:41.361Z,52.60
2018-07-23T10:37:09.899Z,50.10
2018-07-23T10:39:38.370Z,50.00
2018-07-23T10:42:07.036Z,50.70
2018-07-23T10:44:35.587Z,50.90
2018-07-23T10:47:04.110Z,48.90
2018-07-23T10:49:32.665Z,48.20
2018-07-23T10:52:01.795Z,48.50
2018-07-23T10:54:30.326Z,47.70
2018-07-23T10:56:58.913Z,48.00
2018-07-23T10:59:34.020Z,47.70
2018-07-23T11:02:02.534Z,47.10
2018-07-23T11:04:31.082Z,47.50
2018-07-23T11:06:59.641Z,47.30
2018-07-23T11:09:28.095Z,45.80
2018-07-23T11:11:56.775Z,47.10
2018-07-23T11:14:25.297Z,47.70
2018-07-23T11:16:53.953Z,48.10
2018-07-23T11:19:22.529Z,48.50
2018-07-23T11:21:51.107Z,48.70
2018-07-23T11:24:19.632Z,49.00
2018-07-23T11:26:48.192Z,50.10
2018-07-23T11:29:16.678Z,51.10
2018-07-23T11:31:45.235Z,51.70
2018-07-23T11:34:13.756Z,51.90
2018-07-23T11:36:42.240Z,53.70
2018-07-23T11:39:11.790Z,54.60
2018-07-23T11:41:40.619Z,55.40
2018-07-23T11:44:09.371Z,55.70
2018-07-23T11:49:06.842Z,56.60
2018-07-23T11:51:35.541Z,56.80
2018-07-23T11:54:04.291Z,57.00
2018-07-23T11:56:32.799Z,56.80
2018-07-23T11:59:01.282Z,57.00
2018-07-23T12:01:29.792Z,56.20
2018-07-23T12:06:26.907Z,54.30
2018-07-23T12:08:55.457Z,53.90
2018-07-23T12:11:23.952Z,53.60
2018-07-23T12:13:52.458Z,53.30
2018-07-23T12:16:21.296Z,51.20
2018-07-23T12:18:49.866Z,50.50
2018-07-23T12:21:18.473Z,48.50
2018-07-23T12:23:47.022Z,46.00
2018-07-23T12:26:15.523Z,44.10
2018-07-23T12:28:44.054Z,43.10
2018-07-23T12:31:12.617Z,41.50
2018-07-23T12:33:41.180Z,38.00
2018-07-23T12:36:12.933Z,35.70
2018-07-23T12:38:41.438Z,34.50
2018-07-23T12:41:09.936Z,33.60
2018-07-23T12:43:38.442Z,32.50
2018-07-23T12:46:07.017Z,34.00
2018-07-23T12:48:35.527Z,35.70
2018-07-23T12:51:04.058Z,37.50
2018-07-23T12:53:32.517Z,38.90
2018-07-23T12:56:00.970Z,36.30
2018-07-23T12:58:29.449Z,36.40
2018-07-23T13:00:57.931Z,36.20
2018-07-23T13:03:26.515Z,37.20
2018-07-23T13:05:58.430Z,36.20
2018-07-23T13:08:27.922Z,35.30
2018-07-23T13:10:56.399Z,36.10
2018-07-23T13:13:25.162Z,34.90
2018-07-23T13:15:53.715Z,32.70
2018-07-23T13:18:22.223Z,31.00
2018-07-23T13:20:50.857Z,29.30
2018-07-23T13:23:19.481Z,28.50
2018-07-23T13:25:47.992Z,28.10
2018-07-23T13:28:16.485Z,27.60
2018-07-23T13:30:45.046Z,26.90
2018-07-23T13:33:13.815Z,27.20
2018-07-23T13:35:42.344Z,27.10
2018-07-23T13:38:10.934Z,26.50
2018-07-23T13:40:39.387Z,26.90
2018-07-23T13:43:07.994Z,26.10
2018-07-23T16:43:35.424Z,40.40
2018-07-23T16:46:05.723Z,40.00
2018-07-23T16:48:34.386Z,39.50
2018-07-23T16:51:02.893Z,39.50
2018-07-23T16:53:31.500Z,39.30
2018-07-23T16:56:11.428Z,39.50
2018-07-23T16:58:40.160Z,39.70
2018-07-23T17:01:08.661Z,38.10
2018-07-23T17:03:38.698Z,37.80
2018-07-23T17:06:07.359Z,36.80
2018-07-23T17:08:36.038Z,35.30
2018-07-23T17:11:04.798Z,36.20
2018-07-23T17:13:33.281Z,37.10
2018-07-23T17:16:01.882Z,37.70
2018-07-23T17:18:30.466Z,38.30
2018-07-23T17:20:59.883Z,37.90
2018-07-23T17:23:28.558Z,38.20
2018-07-23T17:25:57.959Z,38.10
2018-07-23T17:28:27.833Z,37.40
2018-07-23T17:31:00.134Z,38.60
2018-07-23T17:33:28.904Z,36.50
2018-07-23T17:35:58.373Z,36.10
2018-07-23T17:38:26.929Z,36.80
2018-07-23T17:40:55.435Z,42.40
2018-07-23T17:43:24.436Z,46.10
2018-07-23T17:45:53.842Z,49.10
2018-07-23T17:48:22.755Z,47.10
2018-07-23T17:50:57.747Z,50.80
2018-07-23T17:53:26.560Z,48.70
2018-07-23T17:55:55.252Z,50.30
2018-07-23T17:58:23.762Z,51.20
2018-07-23T18:00:52.347Z,49.40
2018-07-23T18:03:20.876Z,49.50
2018-07-23T18:05:49.381Z,52.40
2018-07-23T18:08:18.052Z,50.60
2018-07-23T18:10:46.743Z,51.30
2018-07-23T18:13:15.376Z,48.20
2018-07-23T18:15:44.853Z,46.40
2018-07-23T18:18:13.565Z,45.50
2018-07-23T18:20:42.308Z,46.00
2018-07-23T18:23:11.699Z,47.30
2018-07-23T18:25:40.487Z,49.70
2018-07-23T18:28:09.076Z,48.80
2018-07-23T18:30:38.584Z,49.90
2018-07-23T18:33:07.199Z,50.70
2018-07-23T18:35:35.785Z,51.40
2018-07-23T18:38:04.492Z,52.00
2018-07-23T18:43:01.400Z,51.20
2018-07-23T18:45:30.141Z,52.40
2018-07-23T18:47:58.708Z,52.50
2018-07-23T18:50:27.271Z,53.20
2018-07-23T18:52:55.778Z,54.30
2018-07-23T18:55:24.327Z,53.60
2018-07-23T19:00:21.139Z,54.60
2018-07-23T19:02:49.667Z,55.20
2018-07-23T19:05:18.189Z,55.00
2018-07-23T19:07:46.676Z,54.60
2018-07-23T19:10:15.555Z,55.30
2018-07-23T19:12:45.846Z,55.80
2018-07-23T19:15:14.443Z,56.30
2018-07-23T19:17:48.819Z,57.30
2018-07-23T19:20:18.215Z,57.10
2018-07-23T19:22:46.853Z,57.60
2018-07-23T19:25:16.584Z,58.90
2018-07-23T19:27:47.081Z,58.50
2018-07-23T19:30:16.273Z,59.70
2018-07-23T19:32:46.293Z,60.00
2018-07-23T19:35:16.604Z,61.30
2018-07-23T19:37:45.187Z,61.30
2018-07-23T19:40:13.761Z,61.80
2018-07-23T19:42:42.306Z,63.00
2018-07-23T19:45:10.078Z,62.90
2018-07-23T19:47:38.775Z,62.90
2018-07-23T19:50:07.282Z,62.90
2018-07-23T19:52:35.879Z,64.00
2018-07-23T19:55:04.450Z,63.30
2018-07-23T19:57:33.114Z,63.70
2018-07-23T20:00:01.844Z,64.10
2018-07-23T20:02:30.371Z,65.40
2018-07-23T20:04:59.789Z,64.20
2018-07-23T20:07:28.822Z,64.20
2018-07-23T20:09:57.550Z,64.60
